sensor_id;sensor_type;location;lat;lon;timestamp;temperature;humidity
10390;DHT22;5241;47.830;12.972;2024-01-06T00:02:22;3.10;99.90
10390;DHT22;5241;47.830;12.972;2024-01-06T00:04:47;3.20;99.90
10390;DHT22;5241;47.830;12.972;2024-01-06T00:07:13;3.10;99.90
10390;DHT22;5241;47.830;12.972;2024-01-06T00:09:39;3.00;99.90
10390;DHT22;5241;47.830;12.972;2024-01-06T00:12:05;3.00;99.90
10390;DHT22;5241;47.830;12.972;2024-01-06T00:14:31;3.00;99.90
10390;DHT22;5241;47.830;12.972;2024-01-06T00:16:56;3.00;99.90
10390;DHT22;5241;47.830;12.972;2024-01-06T00:19:22;2.90;99.90
10390;DHT22;5241;47.830;12.972;2024-01-06T00:21:47;3.00;99.90
10390;DHT22;5241;47.830;12.972;2024-01-06T00:24:13;3.00;99.90
10390;DHT22;5241;47.830;12.972;2024-01-06T00:26:38;3.00;99.90
10390;DHT22;5241;47.830;12.972;2024-01-06T00:29:04;3.00;99.90
10390;DHT22;5241;47.830;12.972;2024-01-06T00:31:29;2.90;99.90
10390;DHT22;5241;47.830;12.972;2024-01-06T00:33:55;2.90;99.90
10390;DHT22;5241;47.830;12.972;2024-01-06T00:36:20;2.90;99.90
10390;DHT22;5241;47.830;12.972;2024-01-06T00:38:46;2.90;99.90
10390;DHT22;5241;47.830;12.972;2024-01-06T00:41:13;2.90;99.90
10390;DHT22;5241;47.830;12.972;2024-01-06T00:43:38;2.90;99.90
10390;DHT22;5241;47.830;12.972;2024-01-06T00:46:04;2.90;99.90
10390;DHT22;5241;47.830;12.972;2024-01-06T00:48:30;3.00;99.90
10390;DHT22;5241;47.830;12.972;2024-01-06T00:50:55;2.90;99.90
10390;DHT22;5241;47.830;12.972;2024-01-06T00:53:21;2.90;99.90
10390;DHT22;5241;47.830;12.972;2024-01-06T00:55:47;3.00;99.90
10390;DHT22;5241;47.830;12.972;2024-01-06T00:58:12;3.00;99.90
10390;DHT22;5241;47.830;12.972;2024-01-06T01:00:38;3.00;99.90
10390;DHT22;5241;47.830;12.972;2024-01-06T01:03:04;3.00;99.90
10390;DHT22;5241;47.830;12.972;2024-01-06T01:05:29;2.90;99.90
10390;DHT22;5241;47.830;12.972;2024-01-06T01:07:55;3.00;99.90
10390;DHT22;5241;47.830;12.972;2024-01-06T01:10:21;3.00;99.90
10390;DHT22;5241;47.830;12.972;2024-01-06T01:12:46;3.00;99.90
10390;DHT22;5241;47.830;12.972;2024-01-06T01:15:12;3.00;99.90
10390;DHT22;5241;47.830;12.972;2024-01-06T01:17:37;3.00;99.90
10390;DHT22;5241;47.830;12.972;2024-01-06T01:20:03;3.00;99.90
10390;DHT22;5241;47.830;12.972;2024-01-06T01:22:29;3.00;99.90
10390;DHT22;5241;47.830;12.972;2024-01-06T01:24:54;3.00;99.90
10390;DHT22;5241;47.830;12.972;2024-01-06T01:27:20;3.00;99.90
10390;DHT22;5241;47.830;12.972;2024-01-06T01:29:46;3.00;99.90
10390;DHT22;5241;47.830;12.972;2024-01-06T01:32:13;3.00;99.90
10390;DHT22;5241;47.830;12.972;2024-01-06T01:34:39;3.00;99.90
10390;DHT22;5241;47.830;12.972;2024-01-06T01:37:04;3.00;99.90
10390;DHT22;5241;47.830;12.972;2024-01-06T01:39:30;3.10;99.90
10390;DHT22;5241;47.830;12.972;2024-01-06T01:41:55;3.10;99.90
10390;DHT22;5241;47.830;12.972;2024-01-06T01:44:21;3.10;99.90
10390;DHT22;5241;47.830;12.972;2024-01-06T01:46:46;3.10;99.90
10390;DHT22;5241;47.830;12.972;2024-01-06T01:49:12;3.10;99.90
10390;DHT22;5241;47.830;12.972;2024-01-06T01:51:38;3.10;99.90
10390;DHT22;5241;47.830;12.972;2024-01-06T01:54:05;3.10;99.90
10390;DHT22;5241;47.830;12.972;2024-01-06T01:56:31;3.10;99.90
10390;DHT22;5241;47.830;12.972;2024-01-06T01:59:09;3.10;99.90
10390;DHT22;5241;47.830;12.972;2024-01-06T02:01:36;3.10;99.90
10390;DHT22;5241;47.830;12.972;2024-01-06T02:04:03;3.00;99.90
10390;DHT22;5241;47.830;12.972;2024-01-06T02:06:28;3.00;99.90
10390;DHT22;5241;47.830;12.972;2024-01-06T02:08:54;3.10;99.90
10390;DHT22;5241;47.830;12.972;2024-01-06T02:11:20;3.10;99.90
10390;DHT22;5241;47.830;12.972;2024-01-06T02:13:45;3.10;99.90
10390;DHT22;5241;47.830;12.972;2024-01-06T02:16:11;3.00;99.90
10390;DHT22;5241;47.830;12.972;2024-01-06T02:18:36;3.10;99.90
10390;DHT22;5241;47.830;12.972;2024-01-06T02:21:02;3.10;99.90
10390;DHT22;5241;47.830;12.972;2024-01-06T02:23:29;3.10;99.90
10390;DHT22;5241;47.830;12.972;2024-01-06T02:25:55;3.10;99.90
10390;DHT22;5241;47.830;12.972;2024-01-06T02:28:21;3.00;99.90
10390;DHT22;5241;47.830;12.972;2024-01-06T02:30:47;3.00;99.90
10390;DHT22;5241;47.830;12.972;2024-01-06T02:33:13;3.10;99.90
10390;DHT22;5241;47.830;12.972;2024-01-06T02:35:38;3.10;99.90
10390;DHT22;5241;47.830;12.972;2024-01-06T02:38:05;3.00;99.90
10390;DHT22;5241;47.830;12.972;2024-01-06T02:40:31;3.00;99.90
10390;DHT22;5241;47.830;12.972;2024-01-06T02:42:58;3.00;99.90
10390;DHT22;5241;47.830;12.972;2024-01-06T02:45:23;3.00;99.90
10390;DHT22;5241;47.830;12.972;2024-01-06T02:47:49;3.00;99.90
10390;DHT22;5241;47.830;12.972;2024-01-06T02:50:14;3.00;99.90
10390;DHT22;5241;47.830;12.972;2024-01-06T02:52:40;3.00;99.90
10390;DHT22;5241;47.830;12.972;2024-01-06T02:55:06;3.00;99.90
10390;DHT22;5241;47.830;12.972;2024-01-06T02:57:31;3.00;99.90
10390;DHT22;5241;47.830;12.972;2024-01-06T02:59:57;3.00;99.90
10390;DHT22;5241;47.830;12.972;2024-01-06T03:02:23;3.00;99.90
10390;DHT22;5241;47.830;12.972;2024-01-06T03:04:49;3.00;99.90
10390;DHT22;5241;47.830;12.972;2024-01-06T03:07:14;3.00;99.90
10390;DHT22;5241;47.830;12.972;2024-01-06T03:09:40;3.00;99.90
10390;DHT22;5241;47.830;12.972;2024-01-06T03:12:06;3.00;99.90
10390;DHT22;5241;47.830;12.972;2024-01-06T03:14:35;3.00;99.90
10390;DHT22;5241;47.830;12.972;2024-01-06T03:17:01;3.10;99.90
10390;DHT22;5241;47.830;12.972;2024-01-06T03:19:28;3.10;99.90
10390;DHT22;5241;47.830;12.972;2024-01-06T03:21:53;3.10;99.90
10390;DHT22;5241;47.830;12.972;2024-01-06T03:24:23;3.20;99.90
10390;DHT22;5241;47.830;12.972;2024-01-06T03:26:49;3.10;99.90
10390;DHT22;5241;47.830;12.972;2024-01-06T03:29:15;3.10;99.90
10390;DHT22;5241;47.830;12.972;2024-01-06T03:31:44;3.20;99.90
10390;DHT22;5241;47.830;12.972;2024-01-06T03:34:10;3.10;99.90
10390;DHT22;5241;47.830;12.972;2024-01-06T03:36:39;3.10;99.90
10390;DHT22;5241;47.830;12.972;2024-01-06T03:39:04;3.10;99.90
10390;DHT22;5241;47.830;12.972;2024-01-06T03:41:30;3.00;99.90
10390;DHT22;5241;47.830;12.972;2024-01-06T03:43:55;3.00;99.90
10390;DHT22;5241;47.830;12.972;2024-01-06T03:46:22;3.00;99.90
10390;DHT22;5241;47.830;12.972;2024-01-06T03:48:47;3.00;99.90
10390;DHT22;5241;47.830;12.972;2024-01-06T03:51:13;3.00;99.90
10390;DHT22;5241;47.830;12.972;2024-01-06T03:53:38;3.00;99.90
10390;DHT22;5241;47.830;12.972;2024-01-06T03:56:06;3.00;99.90
10390;DHT22;5241;47.830;12.972;2024-01-06T03:58:31;3.00;99.90
10390;DHT22;5241;47.830;12.972;2024-01-06T04:00:57;3.00;99.90
10390;DHT22;5241;47.830;12.972;2024-01-06T04:03:22;3.00;99.90
10390;DHT22;5241;47.830;12.972;2024-01-06T04:05:48;3.00;99.90
10390;DHT22;5241;47.830;12.972;2024-01-06T04:08:14;3.10;99.90
10390;DHT22;5241;47.830;12.972;2024-01-06T04:10:39;3.00;99.90
10390;DHT22;5241;47.830;12.972;2024-01-06T04:13:12;3.00;99.90
10390;DHT22;5241;47.830;12.972;2024-01-06T04:15:38;3.00;99.90
10390;DHT22;5241;47.830;12.972;2024-01-06T04:18:04;3.10;99.90
10390;DHT22;5241;47.830;12.972;2024-01-06T04:20:31;3.10;99.90
10390;DHT22;5241;47.830;12.972;2024-01-06T04:22:57;3.10;99.90
10390;DHT22;5241;47.830;12.972;2024-01-06T04:25:22;3.10;99.90
10390;DHT22;5241;47.830;12.972;2024-01-06T04:27:48;3.10;99.90
10390;DHT22;5241;47.830;12.972;2024-01-06T04:30:14;3.20;99.90
10390;DHT22;5241;47.830;12.972;2024-01-06T04:32:40;3.20;99.90
10390;DHT22;5241;47.830;12.972;2024-01-06T04:35:06;3.20;99.90
10390;DHT22;5241;47.830;12.972;2024-01-06T04:37:32;3.30;99.90
10390;DHT22;5241;47.830;12.972;2024-01-06T04:39:57;3.30;99.90
10390;DHT22;5241;47.830;12.972;2024-01-06T04:42:23;3.30;99.90
10390;DHT22;5241;47.830;12.972;2024-01-06T04:44:49;3.30;99.90
10390;DHT22;5241;47.830;12.972;2024-01-06T04:47:15;3.30;99.90
10390;DHT22;5241;47.830;12.972;2024-01-06T04:49:41;3.30;99.90
10390;DHT22;5241;47.830;12.972;2024-01-06T04:52:06;3.30;99.90
10390;DHT22;5241;47.830;12.972;2024-01-06T04:54:32;3.30;99.90
10390;DHT22;5241;47.830;12.972;2024-01-06T04:56:58;3.30;99.90
10390;DHT22;5241;47.830;12.972;2024-01-06T04:59:24;3.30;99.90
10390;DHT22;5241;47.830;12.972;2024-01-06T05:01:51;3.30;99.90
10390;DHT22;5241;47.830;12.972;2024-01-06T05:04:17;3.30;99.90
10390;DHT22;5241;47.830;12.972;2024-01-06T05:06:43;3.30;99.90
10390;DHT22;5241;47.830;12.972;2024-01-06T05:09:08;3.30;99.90
10390;DHT22;5241;47.830;12.972;2024-01-06T05:11:34;3.20;99.90
10390;DHT22;5241;47.830;12.972;2024-01-06T05:14:00;3.30;99.90
10390;DHT22;5241;47.830;12.972;2024-01-06T05:16:25;3.30;99.90
10390;DHT22;5241;47.830;12.972;2024-01-06T05:18:51;3.30;99.90
10390;DHT22;5241;47.830;12.972;2024-01-06T05:21:17;3.30;99.90
10390;DHT22;5241;47.830;12.972;2024-01-06T05:23:42;3.30;99.90
10390;DHT22;5241;47.830;12.972;2024-01-06T05:26:08;3.30;99.90
10390;DHT22;5241;47.830;12.972;2024-01-06T05:28:34;3.30;99.90
10390;DHT22;5241;47.830;12.972;2024-01-06T05:31:00;3.30;99.90
10390;DHT22;5241;47.830;12.972;2024-01-06T05:33:25;3.30;99.90
10390;DHT22;5241;47.830;12.972;2024-01-06T05:35:51;3.30;99.90
10390;DHT22;5241;47.830;12.972;2024-01-06T05:38:16;3.30;99.90
10390;DHT22;5241;47.830;12.972;2024-01-06T05:40:42;3.20;99.90
10390;DHT22;5241;47.830;12.972;2024-01-06T05:43:08;3.20;99.90
10390;DHT22;5241;47.830;12.972;2024-01-06T05:45:33;3.30;99.90
10390;DHT22;5241;47.830;12.972;2024-01-06T05:47:59;3.30;99.90
10390;DHT22;5241;47.830;12.972;2024-01-06T05:50:24;3.30;99.90
10390;DHT22;5241;47.830;12.972;2024-01-06T05:52:50;3.30;99.90
10390;DHT22;5241;47.830;12.972;2024-01-06T05:55:17;3.30;99.90
10390;DHT22;5241;47.830;12.972;2024-01-06T05:57:42;3.40;99.90
10390;DHT22;5241;47.830;12.972;2024-01-06T06:00:09;3.40;99.90
10390;DHT22;5241;47.830;12.972;2024-01-06T06:02:34;3.30;99.90
10390;DHT22;5241;47.830;12.972;2024-01-06T06:05:00;3.30;99.90
10390;DHT22;5241;47.830;12.972;2024-01-06T06:07:26;3.40;99.90
10390;DHT22;5241;47.830;12.972;2024-01-06T06:09:51;3.40;99.90
10390;DHT22;5241;47.830;12.972;2024-01-06T06:12:18;3.40;99.90
10390;DHT22;5241;47.830;12.972;2024-01-06T06:14:44;3.30;99.90
10390;DHT22;5241;47.830;12.972;2024-01-06T06:17:09;3.40;99.90
10390;DHT22;5241;47.830;12.972;2024-01-06T06:19:35;3.40;99.90
10390;DHT22;5241;47.830;12.972;2024-01-06T06:22:00;3.40;99.90
10390;DHT22;5241;47.830;12.972;2024-01-06T06:24:26;3.40;99.90
10390;DHT22;5241;47.830;12.972;2024-01-06T06:26:51;3.40;99.90
10390;DHT22;5241;47.830;12.972;2024-01-06T06:29:17;3.40;99.90
10390;DHT22;5241;47.830;12.972;2024-01-06T06:31:42;3.40;99.90
10390;DHT22;5241;47.830;12.972;2024-01-06T06:34:12;3.30;99.90
10390;DHT22;5241;47.830;12.972;2024-01-06T06:36:38;3.40;99.90
10390;DHT22;5241;47.830;12.972;2024-01-06T06:39:03;3.40;99.90
10390;DHT22;5241;47.830;12.972;2024-01-06T06:41:29;3.40;99.90
10390;DHT22;5241;47.830;12.972;2024-01-06T06:43:56;3.50;99.90
10390;DHT22;5241;47.830;12.972;2024-01-06T06:46:21;3.50;99.90
10390;DHT22;5241;47.830;12.972;2024-01-06T06:48:47;3.50;99.90
10390;DHT22;5241;47.830;12.972;2024-01-06T06:51:12;3.50;99.90
10390;DHT22;5241;47.830;12.972;2024-01-06T06:53:38;3.50;99.90
10390;DHT22;5241;47.830;12.972;2024-01-06T06:56:03;3.60;99.90
10390;DHT22;5241;47.830;12.972;2024-01-06T06:58:29;3.50;99.90
10390;DHT22;5241;47.830;12.972;2024-01-06T07:00:54;3.50;99.90
10390;DHT22;5241;47.830;12.972;2024-01-06T07:03:20;3.50;99.90
10390;DHT22;5241;47.830;12.972;2024-01-06T07:05:46;3.60;99.90
10390;DHT22;5241;47.830;12.972;2024-01-06T07:08:11;3.60;99.90
10390;DHT22;5241;47.830;12.972;2024-01-06T07:10:40;3.60;99.90
10390;DHT22;5241;47.830;12.972;2024-01-06T07:13:05;3.50;99.90
10390;DHT22;5241;47.830;12.972;2024-01-06T07:15:31;3.50;99.90
10390;DHT22;5241;47.830;12.972;2024-01-06T07:17:56;3.50;99.90
10390;DHT22;5241;47.830;12.972;2024-01-06T07:20:22;3.60;99.90
10390;DHT22;5241;47.830;12.972;2024-01-06T07:22:47;3.70;99.90
10390;DHT22;5241;47.830;12.972;2024-01-06T07:25:13;3.70;99.90
10390;DHT22;5241;47.830;12.972;2024-01-06T07:27:39;3.70;99.90
10390;DHT22;5241;47.830;12.972;2024-01-06T07:30:05;3.70;99.90
10390;DHT22;5241;47.830;12.972;2024-01-06T07:32:33;3.70;99.90
10390;DHT22;5241;47.830;12.972;2024-01-06T07:34:58;3.80;99.90
10390;DHT22;5241;47.830;12.972;2024-01-06T07:37:24;3.80;99.90
10390;DHT22;5241;47.830;12.972;2024-01-06T07:39:49;3.80;99.90
10390;DHT22;5241;47.830;12.972;2024-01-06T07:42:15;3.80;99.90
10390;DHT22;5241;47.830;12.972;2024-01-06T07:44:40;3.70;99.90
10390;DHT22;5241;47.830;12.972;2024-01-06T07:47:06;3.80;99.90
10390;DHT22;5241;47.830;12.972;2024-01-06T07:49:32;3.80;99.90
10390;DHT22;5241;47.830;12.972;2024-01-06T07:51:57;3.80;99.90
10390;DHT22;5241;47.830;12.972;2024-01-06T07:54:23;3.80;99.90
10390;DHT22;5241;47.830;12.972;2024-01-06T07:56:48;3.80;99.90
10390;DHT22;5241;47.830;12.972;2024-01-06T07:59:14;3.80;99.90
10390;DHT22;5241;47.830;12.972;2024-01-06T08:01:39;3.90;99.90
10390;DHT22;5241;47.830;12.972;2024-01-06T08:04:06;4.00;99.90
10390;DHT22;5241;47.830;12.972;2024-01-06T08:06:32;4.00;99.90
10390;DHT22;5241;47.830;12.972;2024-01-06T08:08:57;4.00;99.90
10390;DHT22;5241;47.830;12.972;2024-01-06T08:11:23;4.10;99.90
10390;DHT22;5241;47.830;12.972;2024-01-06T08:13:48;4.10;99.90
10390;DHT22;5241;47.830;12.972;2024-01-06T08:16:14;4.10;99.90
10390;DHT22;5241;47.830;12.972;2024-01-06T08:18:39;4.10;99.90
10390;DHT22;5241;47.830;12.972;2024-01-06T08:21:05;4.10;99.90
10390;DHT22;5241;47.830;12.972;2024-01-06T08:23:30;4.00;99.90
10390;DHT22;5241;47.830;12.972;2024-01-06T08:25:56;4.10;99.90
10390;DHT22;5241;47.830;12.972;2024-01-06T08:28:22;4.10;99.90
10390;DHT22;5241;47.830;12.972;2024-01-06T08:30:49;4.10;99.90
10390;DHT22;5241;47.830;12.972;2024-01-06T08:33:14;4.10;99.90
10390;DHT22;5241;47.830;12.972;2024-01-06T08:35:40;4.10;99.90
10390;DHT22;5241;47.830;12.972;2024-01-06T08:38:09;4.10;99.90
10390;DHT22;5241;47.830;12.972;2024-01-06T08:40:35;4.10;99.90
10390;DHT22;5241;47.830;12.972;2024-01-06T08:43:01;4.20;99.90
10390;DHT22;5241;47.830;12.972;2024-01-06T08:45:27;4.10;99.90
10390;DHT22;5241;47.830;12.972;2024-01-06T08:47:52;4.10;99.90
10390;DHT22;5241;47.830;12.972;2024-01-06T08:50:18;4.10;99.90
10390;DHT22;5241;47.830;12.972;2024-01-06T08:52:43;4.20;99.90
10390;DHT22;5241;47.830;12.972;2024-01-06T08:55:09;4.10;99.90
10390;DHT22;5241;47.830;12.972;2024-01-06T08:57:35;4.10;99.90
10390;DHT22;5241;47.830;12.972;2024-01-06T09:00:00;4.10;99.90
10390;DHT22;5241;47.830;12.972;2024-01-06T09:02:26;4.00;99.90
10390;DHT22;5241;47.830;12.972;2024-01-06T09:04:51;4.00;99.90
10390;DHT22;5241;47.830;12.972;2024-01-06T09:07:17;4.10;99.90
10390;DHT22;5241;47.830;12.972;2024-01-06T09:09:43;4.10;99.90
10390;DHT22;5241;47.830;12.972;2024-01-06T09:12:09;4.10;99.90
10390;DHT22;5241;47.830;12.972;2024-01-06T09:14:35;4.10;99.90
10390;DHT22;5241;47.830;12.972;2024-01-06T09:17:00;4.10;99.90
10390;DHT22;5241;47.830;12.972;2024-01-06T09:19:26;4.10;99.90
10390;DHT22;5241;47.830;12.972;2024-01-06T09:21:54;4.20;99.90
10390;DHT22;5241;47.830;12.972;2024-01-06T09:24:20;4.20;99.90
10390;DHT22;5241;47.830;12.972;2024-01-06T09:26:45;4.20;99.90
10390;DHT22;5241;47.830;12.972;2024-01-06T09:29:11;4.20;99.90
10390;DHT22;5241;47.830;12.972;2024-01-06T09:31:37;4.20;99.90
10390;DHT22;5241;47.830;12.972;2024-01-06T09:34:03;4.20;99.90
10390;DHT22;5241;47.830;12.972;2024-01-06T09:36:30;4.20;99.90
10390;DHT22;5241;47.830;12.972;2024-01-06T09:38:56;4.20;99.90
10390;DHT22;5241;47.830;12.972;2024-01-06T09:41:22;4.30;99.90
10390;DHT22;5241;47.830;12.972;2024-01-06T09:43:48;4.20;99.90
10390;DHT22;5241;47.830;12.972;2024-01-06T09:46:27;4.30;99.90
10390;DHT22;5241;47.830;12.972;2024-01-06T09:48:55;4.40;99.90
10390;DHT22;5241;47.830;12.972;2024-01-06T09:51:21;4.50;99.90
10390;DHT22;5241;47.830;12.972;2024-01-06T09:54:03;4.50;99.90
10390;DHT22;5241;47.830;12.972;2024-01-06T09:56:39;4.50;99.90
10390;DHT22;5241;47.830;12.972;2024-01-06T09:59:05;4.40;99.90
10390;DHT22;5241;47.830;12.972;2024-01-06T10:01:30;4.40;99.90
10390;DHT22;5241;47.830;12.972;2024-01-06T10:03:56;4.50;99.90
10390;DHT22;5241;47.830;12.972;2024-01-06T10:06:21;4.60;99.90
10390;DHT22;5241;47.830;12.972;2024-01-06T10:08:51;4.60;99.90
10390;DHT22;5241;47.830;12.972;2024-01-06T10:11:24;4.50;99.90
10390;DHT22;5241;47.830;12.972;2024-01-06T10:13:50;4.60;99.90
10390;DHT22;5241;47.830;12.972;2024-01-06T10:16:17;4.60;99.90
10390;DHT22;5241;47.830;12.972;2024-01-06T10:18:44;4.60;99.90
10390;DHT22;5241;47.830;12.972;2024-01-06T10:21:09;4.60;99.90
10390;DHT22;5241;47.830;12.972;2024-01-06T10:23:36;4.60;99.90
10390;DHT22;5241;47.830;12.972;2024-01-06T10:26:02;4.60;99.90
10390;DHT22;5241;47.830;12.972;2024-01-06T10:28:28;4.60;99.90
10390;DHT22;5241;47.830;12.972;2024-01-06T10:30:55;4.60;99.90
10390;DHT22;5241;47.830;12.972;2024-01-06T10:33:22;4.60;99.90
10390;DHT22;5241;47.830;12.972;2024-01-06T10:35:49;4.60;99.90
10390;DHT22;5241;47.830;12.972;2024-01-06T10:38:15;4.50;99.90
10390;DHT22;5241;47.830;12.972;2024-01-06T10:40:59;4.50;99.90
10390;DHT22;5241;47.830;12.972;2024-01-06T10:43:26;4.60;99.90
10390;DHT22;5241;47.830;12.972;2024-01-06T10:45:56;4.60;99.90
10390;DHT22;5241;47.830;12.972;2024-01-06T10:48:25;4.50;99.90
10390;DHT22;5241;47.830;12.972;2024-01-06T10:50:51;4.60;99.90
10390;DHT22;5241;47.830;12.972;2024-01-06T10:53:17;4.60;99.90
10390;DHT22;5241;47.830;12.972;2024-01-06T10:55:44;4.60;99.90
10390;DHT22;5241;47.830;12.972;2024-01-06T10:58:11;4.60;99.90
10390;DHT22;5241;47.830;12.972;2024-01-06T11:00:37;4.50;99.90
10390;DHT22;5241;47.830;12.972;2024-01-06T11:03:05;4.40;99.90
10390;DHT22;5241;47.830;12.972;2024-01-06T11:05:31;4.50;99.90
10390;DHT22;5241;47.830;12.972;2024-01-06T11:07:58;4.60;99.90
10390;DHT22;5241;47.830;12.972;2024-01-06T11:10:27;4.70;99.90
10390;DHT22;5241;47.830;12.972;2024-01-06T11:13:21;4.60;99.90
10390;DHT22;5241;47.830;12.972;2024-01-06T11:15:49;4.50;99.90
10390;DHT22;5241;47.830;12.972;2024-01-06T11:18:38;4.40;99.90
10390;DHT22;5241;47.830;12.972;2024-01-06T11:21:22;4.50;99.90
10390;DHT22;5241;47.830;12.972;2024-01-06T11:24:20;4.50;99.90
10390;DHT22;5241;47.830;12.972;2024-01-06T11:26:50;4.50;99.90
10390;DHT22;5241;47.830;12.972;2024-01-06T11:29:17;4.30;99.90
10390;DHT22;5241;47.830;12.972;2024-01-06T11:31:43;4.40;99.90
10390;DHT22;5241;47.830;12.972;2024-01-06T11:34:14;4.40;99.90
10390;DHT22;5241;47.830;12.972;2024-01-06T11:36:40;4.30;99.90
10390;DHT22;5241;47.830;12.972;2024-01-06T11:39:06;4.30;99.90
10390;DHT22;5241;47.830;12.972;2024-01-06T11:41:51;4.20;99.90
10390;DHT22;5241;47.830;12.972;2024-01-06T11:44:23;4.20;99.90
10390;DHT22;5241;47.830;12.972;2024-01-06T11:46:48;4.10;99.90
10390;DHT22;5241;47.830;12.972;2024-01-06T11:49:20;4.10;99.90
10390;DHT22;5241;47.830;12.972;2024-01-06T11:51:46;4.10;99.90
10390;DHT22;5241;47.830;12.972;2024-01-06T11:54:11;4.10;99.90
10390;DHT22;5241;47.830;12.972;2024-01-06T11:56:38;4.10;99.90
10390;DHT22;5241;47.830;12.972;2024-01-06T11:59:03;4.10;99.90
10390;DHT22;5241;47.830;12.972;2024-01-06T12:01:36;4.00;99.90
10390;DHT22;5241;47.830;12.972;2024-01-06T12:04:03;3.90;99.90
10390;DHT22;5241;47.830;12.972;2024-01-06T12:06:30;3.90;99.90
10390;DHT22;5241;47.830;12.972;2024-01-06T12:09:06;3.90;99.90
10390;DHT22;5241;47.830;12.972;2024-01-06T12:11:31;3.80;99.90
10390;DHT22;5241;47.830;12.972;2024-01-06T12:13:57;3.80;99.90
10390;DHT22;5241;47.830;12.972;2024-01-06T12:16:23;3.90;99.90
10390;DHT22;5241;47.830;12.972;2024-01-06T12:18:55;3.80;99.90
10390;DHT22;5241;47.830;12.972;2024-01-06T12:21:23;3.90;99.90
10390;DHT22;5241;47.830;12.972;2024-01-06T12:23:48;3.90;99.90
10390;DHT22;5241;47.830;12.972;2024-01-06T12:26:14;3.90;99.90
10390;DHT22;5241;47.830;12.972;2024-01-06T12:28:48;3.80;99.90
10390;DHT22;5241;47.830;12.972;2024-01-06T12:31:14;3.80;99.90
10390;DHT22;5241;47.830;12.972;2024-01-06T12:33:40;3.80;99.90
10390;DHT22;5241;47.830;12.972;2024-01-06T12:36:07;3.90;99.90
10390;DHT22;5241;47.830;12.972;2024-01-06T12:38:36;3.90;99.90
10390;DHT22;5241;47.830;12.972;2024-01-06T12:41:04;3.80;99.90
10390;DHT22;5241;47.830;12.972;2024-01-06T12:43:29;3.80;99.90
10390;DHT22;5241;47.830;12.972;2024-01-06T12:45:55;3.80;99.90
10390;DHT22;5241;47.830;12.972;2024-01-06T12:48:22;3.80;99.90
10390;DHT22;5241;47.830;12.972;2024-01-06T12:50:48;3.90;99.90
10390;DHT22;5241;47.830;12.972;2024-01-06T12:53:13;3.80;99.90
10390;DHT22;5241;47.830;12.972;2024-01-06T12:55:41;3.80;99.90
10390;DHT22;5241;47.830;12.972;2024-01-06T12:58:06;3.80;99.90
10390;DHT22;5241;47.830;12.972;2024-01-06T13:00:33;3.80;99.90
10390;DHT22;5241;47.830;12.972;2024-01-06T13:02:59;3.80;99.90
10390;DHT22;5241;47.830;12.972;2024-01-06T13:05:24;3.70;99.90
10390;DHT22;5241;47.830;12.972;2024-01-06T13:07:50;3.80;99.90
10390;DHT22;5241;47.830;12.972;2024-01-06T13:10:16;3.70;99.90
10390;DHT22;5241;47.830;12.972;2024-01-06T13:12:41;3.70;99.90
10390;DHT22;5241;47.830;12.972;2024-01-06T13:15:07;3.70;99.90
10390;DHT22;5241;47.830;12.972;2024-01-06T13:17:39;3.70;99.90
10390;DHT22;5241;47.830;12.972;2024-01-06T13:20:05;3.70;99.90
10390;DHT22;5241;47.830;12.972;2024-01-06T13:22:31;3.70;99.90
10390;DHT22;5241;47.830;12.972;2024-01-06T13:24:57;3.70;99.90
10390;DHT22;5241;47.830;12.972;2024-01-06T13:27:22;3.70;99.90
10390;DHT22;5241;47.830;12.972;2024-01-06T13:29:48;3.80;99.90
10390;DHT22;5241;47.830;12.972;2024-01-06T13:32:14;3.80;99.90
10390;DHT22;5241;47.830;12.972;2024-01-06T13:34:41;3.70;99.90
10390;DHT22;5241;47.830;12.972;2024-01-06T13:37:07;3.70;99.90
10390;DHT22;5241;47.830;12.972;2024-01-06T13:39:33;3.70;99.90
10390;DHT22;5241;47.830;12.972;2024-01-06T13:41:58;3.70;99.90
10390;DHT22;5241;47.830;12.972;2024-01-06T13:44:24;3.70;99.90
10390;DHT22;5241;47.830;12.972;2024-01-06T13:46:49;3.70;99.90
10390;DHT22;5241;47.830;12.972;2024-01-06T13:49:16;3.60;99.90
10390;DHT22;5241;47.830;12.972;2024-01-06T13:51:43;3.60;99.90
10390;DHT22;5241;47.830;12.972;2024-01-06T13:54:09;3.60;99.90
10390;DHT22;5241;47.830;12.972;2024-01-06T13:56:35;3.60;99.90
10390;DHT22;5241;47.830;12.972;2024-01-06T13:59:01;3.60;99.90
10390;DHT22;5241;47.830;12.972;2024-01-06T14:01:26;3.60;99.90
10390;DHT22;5241;47.830;12.972;2024-01-06T14:03:52;3.50;99.90
10390;DHT22;5241;47.830;12.972;2024-01-06T14:06:24;3.50;99.90
10390;DHT22;5241;47.830;12.972;2024-01-06T14:08:51;3.50;99.90
10390;DHT22;5241;47.830;12.972;2024-01-06T14:11:18;3.50;99.90
10390;DHT22;5241;47.830;12.972;2024-01-06T14:13:43;3.50;99.90
10390;DHT22;5241;47.830;12.972;2024-01-06T14:16:14;3.60;99.90
10390;DHT22;5241;47.830;12.972;2024-01-06T14:18:39;3.60;99.90
10390;DHT22;5241;47.830;12.972;2024-01-06T14:21:05;3.60;99.90
10390;DHT22;5241;47.830;12.972;2024-01-06T14:23:30;3.50;99.90
10390;DHT22;5241;47.830;12.972;2024-01-06T14:25:58;3.60;99.90
10390;DHT22;5241;47.830;12.972;2024-01-06T14:28:24;3.50;99.90
10390;DHT22;5241;47.830;12.972;2024-01-06T14:30:49;3.60;99.90
10390;DHT22;5241;47.830;12.972;2024-01-06T14:33:15;3.60;99.90
10390;DHT22;5241;47.830;12.972;2024-01-06T14:35:41;3.50;99.90
10390;DHT22;5241;47.830;12.972;2024-01-06T14:38:07;3.60;99.90
10390;DHT22;5241;47.830;12.972;2024-01-06T14:40:33;3.60;99.90
10390;DHT22;5241;47.830;12.972;2024-01-06T14:42:58;3.60;99.90
10390;DHT22;5241;47.830;12.972;2024-01-06T14:45:27;3.60;99.90
10390;DHT22;5241;47.830;12.972;2024-01-06T14:47:53;3.60;99.90
10390;DHT22;5241;47.830;12.972;2024-01-06T14:50:18;3.60;99.90
10390;DHT22;5241;47.830;12.972;2024-01-06T14:52:44;3.60;99.90
10390;DHT22;5241;47.830;12.972;2024-01-06T14:55:09;3.60;99.90
10390;DHT22;5241;47.830;12.972;2024-01-06T14:57:35;3.70;99.90
10390;DHT22;5241;47.830;12.972;2024-01-06T15:00:01;3.60;99.90
10390;DHT22;5241;47.830;12.972;2024-01-06T15:02:26;3.60;99.90
10390;DHT22;5241;47.830;12.972;2024-01-06T15:04:52;3.60;99.90
10390;DHT22;5241;47.830;12.972;2024-01-06T15:07:18;3.60;99.90
10390;DHT22;5241;47.830;12.972;2024-01-06T15:09:44;3.60;99.90
10390;DHT22;5241;47.830;12.972;2024-01-06T15:12:09;3.50;99.90
10390;DHT22;5241;47.830;12.972;2024-01-06T15:14:35;3.50;99.90
10390;DHT22;5241;47.830;12.972;2024-01-06T15:17:01;3.50;99.90
10390;DHT22;5241;47.830;12.972;2024-01-06T15:19:26;3.40;99.90
10390;DHT22;5241;47.830;12.972;2024-01-06T15:21:56;3.40;99.90
10390;DHT22;5241;47.830;12.972;2024-01-06T15:24:21;3.40;99.90
10390;DHT22;5241;47.830;12.972;2024-01-06T15:26:51;3.30;99.90
10390;DHT22;5241;47.830;12.972;2024-01-06T15:29:18;3.30;99.90
10390;DHT22;5241;47.830;12.972;2024-01-06T15:31:43;3.40;99.90
10390;DHT22;5241;47.830;12.972;2024-01-06T15:34:09;3.40;99.90
10390;DHT22;5241;47.830;12.972;2024-01-06T15:36:35;3.40;99.90
10390;DHT22;5241;47.830;12.972;2024-01-06T15:39:00;3.40;99.90
10390;DHT22;5241;47.830;12.972;2024-01-06T15:41:26;3.30;99.90